createdAt,value
2022-09-28T00:04:07.139Z,97633.50
2022-09-28T00:09:11.405Z,97617.50
2022-09-28T00:14:15.385Z,97618.53
2022-09-28T00:19:20.323Z,97620.00
2022-09-28T00:24:27.577Z,97616.41
2022-09-28T00:29:33.321Z,97627.88
2022-09-28T00:34:40.808Z,97619.88
2022-09-28T00:39:44.512Z,97622.66
2022-09-28T00:44:50.637Z,97643.25
2022-09-28T00:49:59.060Z,97627.91
2022-09-28T00:55:05.669Z,97624.06
2022-09-28T01:00:10.225Z,97627.56
2022-09-28T01:05:16.170Z,97626.44
2022-09-28T01:10:20.112Z,97634.00
2022-09-28T01:15:25.849Z,97630.97
2022-09-28T01:20:55.899Z,97627.22
2022-09-28T01:26:21.218Z,97634.59
2022-09-28T01:31:31.043Z,97630.97
2022-09-28T01:36:40.802Z,97639.13
2022-09-28T01:41:48.655Z,97641.91
2022-09-28T01:46:53.908Z,97651.63
2022-09-28T01:52:02.721Z,97643.53
2022-09-28T01:57:13.997Z,97647.44
2022-09-28T02:02:22.937Z,97642.00
2022-09-28T02:07:34.936Z,97639.78
2022-09-28T02:12:45.028Z,97649.97
2022-09-28T02:17:49.639Z,97640.00
2022-09-28T02:22:57.490Z,97642.84
2022-09-28T02:28:05.388Z,97644.72
2022-09-28T02:33:14.555Z,97639.53
2022-09-28T02:38:18.708Z,97646.81
2022-09-28T02:43:26.887Z,97639.28
2022-09-28T02:48:55.766Z,97643.38
2022-09-28T02:54:29.587Z,97650.28
2022-09-28T02:59:48.919Z,97648.28
2022-09-28T03:05:05.766Z,97667.84
2022-09-28T03:10:16.781Z,97656.16
2022-09-28T03:15:27.454Z,97661.97
2022-09-28T03:20:33.646Z,97669.44
2022-09-28T03:25:38.437Z,97672.91
2022-09-28T03:30:43.850Z,97679.28
2022-09-28T03:35:49.166Z,97691.19
2022-09-28T03:40:57.297Z,97685.88
2022-09-28T03:46:03.721Z,97683.41
2022-09-28T03:51:12.476Z,97684.84
2022-09-28T03:56:17.537Z,97683.53
2022-09-28T04:01:22.833Z,97700.97
2022-09-28T04:06:27.133Z,97702.44
2022-09-28T04:11:47.568Z,97715.56
2022-09-28T04:16:56.862Z,97709.66
2022-09-28T04:22:03.103Z,97708.50
2022-09-28T04:27:24.093Z,97710.31
2022-09-28T04:32:29.318Z,97718.50
2022-09-28T04:37:33.890Z,97729.59
2022-09-28T04:42:38.740Z,97734.75
2022-09-28T04:47:43.897Z,97729.78
2022-09-28T04:53:07.676Z,97743.91
2022-09-28T04:58:11.090Z,97735.16
2022-09-28T05:03:15.919Z,97739.88
2022-09-28T05:08:37.965Z,97739.09
2022-09-28T05:13:43.862Z,97733.00
2022-09-28T05:18:49.421Z,97725.19
2022-09-28T05:23:56.167Z,97729.75
2022-09-28T05:29:00.202Z,97738.50
2022-09-28T05:34:28.230Z,97746.94
2022-09-28T05:39:31.830Z,97747.56
2022-09-28T05:44:35.322Z,97757.94
2022-09-28T05:49:40.763Z,97760.97
2022-09-28T05:54:44.369Z,97771.59
2022-09-28T05:59:47.778Z,97762.72
2022-09-28T06:04:53.917Z,97770.59
2022-09-28T06:09:57.953Z,97778.75
2022-09-28T06:15:18.578Z,97790.16
2022-09-28T06:20:24.897Z,97790.72
2022-09-28T06:25:45.304Z,97797.69
2022-09-28T06:30:49.169Z,97788.44
2022-09-28T06:35:56.298Z,97796.44
2022-09-28T06:41:00.096Z,97799.97
2022-09-28T06:46:03.877Z,97801.78
2022-09-28T06:51:14.791Z,97798.47
2022-09-28T06:56:38.387Z,97805.81
2022-09-28T07:01:42.188Z,97804.78
2022-09-28T07:06:57.419Z,97792.56
2022-09-28T07:12:19.146Z,97796.72
2022-09-28T07:17:32.025Z,97793.91
2022-09-28T07:22:43.270Z,97792.84
2022-09-28T07:27:52.844Z,97788.13
2022-09-28T07:33:10.829Z,97786.22
2022-09-28T07:38:27.136Z,97785.88
2022-09-28T07:43:32.342Z,97791.63
2022-09-28T07:48:37.091Z,97787.88
2022-09-28T07:53:50.623Z,97786.38
2022-09-28T07:58:59.773Z,97791.28
2022-09-28T08:04:03.342Z,97791.00
2022-09-28T08:09:08.453Z,97797.97
2022-09-28T08:14:44.396Z,97801.50
2022-09-28T08:20:28.118Z,97795.59
2022-09-28T08:25:33.223Z,97794.13
2022-09-28T08:30:39.899Z,97790.53
2022-09-28T08:36:11.527Z,97780.00
2022-09-28T08:41:43.450Z,97782.09
2022-09-28T08:47:36.349Z,97782.00
2022-09-28T08:53:03.956Z,97778.91
2022-09-28T08:58:50.427Z,97787.81
2022-09-28T09:03:54.851Z,97795.06
2022-09-28T09:09:29.587Z,97786.00
2022-09-28T09:14:56.243Z,97800.81
2022-09-28T09:20:07.502Z,97807.69
2022-09-28T09:25:43.922Z,97801.97
2022-09-28T09:31:01.839Z,97798.53
2022-09-28T09:36:20.181Z,97801.97
2022-09-28T09:42:00.871Z,97793.81
2022-09-28T09:47:32.377Z,97794.03
2022-09-28T09:52:51.741Z,97802.03
2022-09-28T09:58:04.289Z,97795.28
2022-09-28T10:03:21.239Z,97798.19
2022-09-28T10:08:28.182Z,97805.81
2022-09-28T10:13:32.989Z,97799.50
2022-09-28T10:18:41.208Z,97798.75
2022-09-28T10:24:03.459Z,97808.59
2022-09-28T10:29:15.924Z,97804.56
2022-09-28T10:34:27.684Z,97806.09
2022-09-28T10:39:36.739Z,97809.09
2022-09-28T10:44:52.542Z,97805.09
2022-09-28T10:50:22.563Z,97807.50
2022-09-28T10:55:33.455Z,97808.06
2022-09-28T11:00:42.360Z,97799.50
2022-09-28T11:06:00.827Z,97795.41
2022-09-28T11:11:11.007Z,97784.34
2022-09-28T11:16:24.313Z,97785.81
2022-09-28T11:21:32.291Z,97792.44
2022-09-28T11:26:44.442Z,97788.75
2022-09-28T11:32:16.019Z,97789.94
2022-09-28T11:38:00.571Z,97786.91
2022-09-28T11:43:52.017Z,97790.72
2022-09-28T11:48:59.357Z,97787.53
2022-09-28T11:54:14.497Z,97782.63
2022-09-28T11:59:25.296Z,97776.19
2022-09-28T12:04:36.971Z,97773.63
2022-09-28T12:09:51.605Z,97782.66
2022-09-28T12:15:01.347Z,97769.94
2022-09-28T12:20:17.335Z,97774.50
2022-09-28T12:25:24.416Z,97770.13
2022-09-28T12:30:34.323Z,97782.19
2022-09-28T12:35:49.847Z,97777.53
2022-09-28T12:41:06.779Z,97781.63
2022-09-28T12:46:29.522Z,97778.59
2022-09-28T12:51:48.002Z,97775.28
2022-09-28T12:57:06.353Z,97776.81
2022-09-28T13:02:47.801Z,97777.94
2022-09-28T13:08:00.893Z,97782.03
2022-09-28T13:13:20.589Z,97770.31
2022-09-28T13:18:29.530Z,97781.84
2022-09-28T13:23:39.124Z,97782.00
2022-09-28T13:28:46.310Z,97777.38
2022-09-28T13:33:51.648Z,97785.94
2022-09-28T13:38:56.506Z,97775.22
2022-09-28T13:44:39.389Z,97779.13
2022-09-28T13:49:57.834Z,97784.44
2022-09-28T13:55:19.403Z,97785.78
2022-09-28T14:00:28.722Z,97784.44
2022-09-28T14:05:49.124Z,97789.88
2022-09-28T14:10:54.480Z,97802.94
2022-09-28T14:16:21.273Z,97788.06
2022-09-28T14:21:53.262Z,97801.53
2022-09-28T14:27:19.515Z,97794.16
2022-09-28T14:32:27.136Z,97799.34
2022-09-28T14:37:50.896Z,97803.81
2022-09-28T14:43:28.246Z,97798.56
2022-09-28T14:48:48.344Z,97808.84
2022-09-28T14:53:52.397Z,97805.88
2022-09-28T14:58:58.666Z,97808.56
2022-09-28T15:04:06.337Z,97802.31
2022-09-28T15:09:27.988Z,97817.34
2022-09-28T15:14:33.469Z,97826.66
2022-09-28T15:19:46.803Z,97826.56
2022-09-28T15:25:01.986Z,97830.66
2022-09-28T15:30:22.545Z,97838.47
2022-09-28T15:35:28.804Z,97845.06
2022-09-28T15:40:36.898Z,97847.22
2022-09-28T15:45:43.597Z,97856.16
2022-09-28T15:50:59.691Z,97861.75
2022-09-28T15:56:10.150Z,97867.41
2022-09-28T16:01:39.899Z,97859.13
2022-09-28T16:06:45.377Z,97861.09
2022-09-28T16:11:48.825Z,97874.38
2022-09-28T16:16:55.362Z,97883.44
2022-09-28T16:22:05.436Z,97888.22
2022-09-28T16:27:25.038Z,97884.56
2022-09-28T16:32:41.843Z,97898.47
2022-09-28T16:37:48.902Z,97899.03
2022-09-28T16:42:54.999Z,97906.75
2022-09-28T16:47:59.293Z,97918.91
2022-09-28T16:53:30.822Z,97928.47
2022-09-28T16:58:34.243Z,97923.44
2022-09-28T17:03:37.618Z,97938.63
2022-09-28T17:08:43.830Z,97940.47
2022-09-28T17:13:48.245Z,97939.97
2022-09-28T17:18:51.664Z,97945.88
2022-09-28T17:23:56.510Z,97949.84
2022-09-28T17:29:01.726Z,97949.47
2022-09-28T17:34:05.546Z,97949.63
2022-09-28T17:39:14.088Z,97959.22
2022-09-28T17:44:17.539Z,97961.78
2022-09-28T17:49:21.012Z,97964.84
2022-09-28T17:54:26.145Z,97971.91
2022-09-28T17:59:29.814Z,97963.72
2022-09-28T18:04:51.172Z,97969.75
2022-09-28T18:09:57.042Z,97974.19
2022-09-28T18:15:00.426Z,97979.22
2022-09-28T18:20:04.140Z,97974.03
2022-09-28T18:25:11.198Z,97971.31
2022-09-28T18:30:14.636Z,97970.19
2022-09-28T18:35:22.781Z,97979.81
2022-09-28T18:40:28.302Z,97981.00
2022-09-28T18:45:31.743Z,97980.13
2022-09-28T18:50:35.491Z,97981.00
2022-09-28T18:55:40.984Z,97969.28
2022-09-28T19:00:44.395Z,97965.19
2022-09-28T19:05:47.767Z,97973.59
2022-09-28T19:10:52.596Z,97984.03
2022-09-28T19:15:57.260Z,97975.72
2022-09-28T19:21:04.601Z,97975.78
2022-09-28T19:26:12.844Z,97966.13
2022-09-28T19:31:17.087Z,97978.81
2022-09-28T19:36:24.120Z,97988.31
2022-09-28T19:41:44.584Z,97989.09
2022-09-28T19:46:48.336Z,97983.97
2022-09-28T19:52:14.242Z,97993.25
2022-09-28T19:57:19.640Z,97988.78
2022-09-28T20:02:24.021Z,97997.44
2022-09-28T20:07:27.448Z,97990.78
2022-09-28T20:12:32.273Z,97992.41
2022-09-28T20:17:37.241Z,97991.09
2022-09-28T20:22:41.805Z,97987.69
2022-09-28T20:27:46.590Z,97985.97
2022-09-28T20:32:50.258Z,97991.84
2022-09-28T20:37:55.614Z,97986.28
2022-09-28T20:43:00.460Z,97981.81
2022-09-28T20:48:06.415Z,97988.81
2022-09-28T20:53:09.850Z,97995.19
2022-09-28T20:58:14.621Z,98006.59
2022-09-28T21:03:18.121Z,98005.78
2022-09-28T21:08:25.337Z,98016.97
2022-09-28T21:13:30.136Z,98018.47
2022-09-28T21:18:33.570Z,98019.94
2022-09-28T21:23:38.006Z,98016.94
2022-09-28T21:28:44.881Z,98026.88
2022-09-28T21:33:48.586Z,98020.56
2022-09-28T21:38:51.984Z,98027.25
2022-09-28T21:43:56.862Z,98017.00
2022-09-28T21:49:00.289Z,98027.09
2022-09-28T21:54:25.939Z,98028.25
2022-09-28T21:59:31.664Z,98025.22
2022-09-28T22:04:35.899Z,98019.97
2022-09-28T22:09:39.652Z,98029.44
2022-09-28T22:14:44.494Z,98023.75
2022-09-28T22:19:47.900Z,98016.84
2022-09-28T22:24:51.493Z,98027.38
2022-09-28T22:29:56.546Z,98018.28
2022-09-28T22:35:00.226Z,98022.53
2022-09-28T22:40:03.675Z,98008.06
2022-09-28T22:45:09.825Z,98002.28
2022-09-28T22:50:13.177Z,98001.94
2022-09-28T22:55:41.947Z,97991.41
2022-09-28T23:01:23.430Z,97998.50
2022-09-28T23:06:29.091Z,97998.50
2022-09-28T23:11:32.518Z,97990.88
2022-09-28T23:16:37.378Z,97998.25
2022-09-28T23:21:41.049Z,97991.16
2022-09-28T23:26:44.427Z,97976.19
2022-09-28T23:31:49.226Z,97969.50
2022-09-28T23:36:53.102Z,97975.41
2022-09-28T23:41:56.542Z,97976.81
2022-09-28T23:47:01.505Z,97973.53
2022-09-28T23:52:04.985Z,97960.81
2022-09-28T23:57:08.399Z,97965.47
